Himawari 2 — JG5636 — position and weather

sailwx.info

Track history (hours):
 
Tides and Currents Weather Stations Pressure Air Temp Water Temp Dewpoint Dewpoint Depression Visibility Wind Speed Wind Dir Waves Ship Positions

Himawari 2

Last reported at 2016-Aug-23 19:33 UTC. Time now 2016-Aug-23 21:04 UTC.
Position N 35°23' E 140°45'.

Length 161 m; draft 6.5 m.

Type: Cargo ship. MMSI: 431100957.

Date/timePositionNaut miles runAvg speedWind from/ knotsBaromVisibWave heightAir tempDewpointWater temp
2016-Aug-23 19:33N 35°23' E 140°45'2019.1
2016-Aug-23 18:31N 35°07' E 140°31'2020.1
2016-Aug-23 17:31N 34°56' E 140°11'1919.2
2016-Aug-23 16:32N 34°50' E 139°48'1818.8
2016-Aug-23 15:34N 35°08' E 139°45'1313.3
2016-Aug-23 14:34N 35°21' E 139°42'1514.5
2016-Aug-23 13:34N 35°35' E 139°47'1 1.1
2016-Aug-23 12:31N 35°36' E 139°48'0 0.0
2016-Aug-23 11:31N 35°36' E 139°48'0 0.0
2016-Aug-23 10:31N 35°36' E 139°48'0 0.0
2016-Aug-23 09:31N 35°36' E 139°48'0 0.0
2016-Aug-23 08:31N 35°36' E 139°48'0 0.0
2016-Aug-23 07:31N 35°36' E 139°48'0 0.0
2016-Aug-23 06:31N 35°36' E 139°48'0 0.0
2016-Aug-23 05:31N 35°36' E 139°48'0 0.0
2016-Aug-23 04:31N 35°36' E 139°48'0 0.0
2016-Aug-23 03:31N 35°36' E 139°48'0 0.0
2016-Aug-23 02:31N 35°36' E 139°48'0 0.5
2016-Aug-23 01:33N 35°36' E 139°47'1212.2
2016-Aug-23 00:33N 35°24' E 139°46'1010.4
2016-Aug-22 23:33N 35°14' E 139°47'1414.1
2016-Aug-22 22:34N 35°01' E 139°39'7919.7
2016-Aug-22 18:32N 34°18' E 138°19'16718.6
2016-Aug-22 09:32N 33°59' E 134°58'2121.4
2016-Aug-22 08:32N 34°20' E 134°59'2020.2
2016-Aug-22 07:34N 34°34' E 135°16'9 8.3
2016-Aug-22 06:31N 34°40' E 135°24'0 0.0
2016-Aug-22 05:25N 34°40' E 135°24'0 0.0
2016-Aug-22 04:31N 34°40' E 135°24'0 0.0
2016-Aug-22 03:31N 34°40' E 135°24'0 0.0
2016-Aug-22 02:31N 34°40' E 135°24'0 0.0
2016-Aug-22 00:25N 34°40' E 135°24'0 0.0
2016-Aug-21 23:31N 34°40' E 135°24'0 0.0
2016-Aug-21 22:31N 34°40' E 135°24'0 0.0
2016-Aug-21 21:31N 34°40' E 135°24'0 0.0
2016-Aug-21 20:31N 34°40' E 135°24'0 0.0
2016-Aug-21 19:25N 34°40' E 135°24'0 0.0
2016-Aug-21 18:31N 34°40' E 135°24'0 0.0
2016-Aug-21 17:31N 34°40' E 135°24'0 0.0
2016-Aug-21 16:25N 34°40' E 135°24'0 0.0
2016-Aug-21 15:31N 34°40' E 135°24'0 0.0
2016-Aug-21 14:31N 34°40' E 135°24'0 0.0
2016-Aug-21 13:31N 34°40' E 135°24'0 0.0
2016-Aug-21 12:31N 34°40' E 135°24'0 0.0
2016-Aug-21 11:31N 34°40' E 135°24'0 0.0
2016-Aug-21 10:31N 34°40' E 135°24'0 0.0
2016-Aug-21 09:31N 34°40' E 135°24'0 0.0
2016-Aug-21 08:31N 34°40' E 135°24'0 0.0
2016-Aug-21 07:31N 34°40' E 135°24'0 0.0
2016-Aug-21 06:25N 34°40' E 135°24'0 0.0
2016-Aug-21 05:33N 34°40' E 135°24'8 7.8
2016-Aug-21 04:33N 34°34' E 135°18'2222.1
2016-Aug-21 03:33N 34°18' E 134°60'16918.8
2016-Aug-20 18:33N 34°21' E 138°24'7222.8
2016-Aug-20 15:24N 35°01' E 139°37'1618.7
2016-Aug-20 14:33N 35°15' E 139°46'1413.7
2016-Aug-20 13:34N 35°28' E 139°49'8 7.7
2016-Aug-20 12:31N 35°36' E 139°48'0 0.0
2016-Aug-20 11:31N 35°36' E 139°48'0 0.0
2016-Aug-20 10:31N 35°36' E 139°48'0 0.1
2016-Aug-20 09:34N 35°36' E 139°48'9 9.5
2016-Aug-20 08:34N 35°27' E 139°49'1212.1
2016-Aug-20 07:34N 35°15' E 139°47'2020.0
2016-Aug-20 06:34N 34°55' E 139°45'2120.7
2016-Aug-20 05:33N 34°59' E 140°10'2222.2
2016-Aug-20 04:33N 35°13' E 140°31'2121.4
2016-Aug-20 03:33N 35°30' E 140°47'2121.1
2016-Aug-20 02:33N 35°49' E 140°59'  
2016-Aug-17 18:25N 35°12' E 140°37'2020.3
2016-Aug-17 17:27N 34°59' E 140°19'1920.5
2016-Aug-17 16:31N 34°51' E 139°58'1515.4
2016-Aug-17 15:33N 34°60' E 139°43'1716.6
2016-Aug-17 14:33N 35°16' E 139°45'1313.5
2016-Aug-17 13:33N 35°29' E 139°50'7 7.0
2016-Aug-17 12:31N 35°36' E 139°48'0 0.0
2016-Aug-17 11:31N 35°36' E 139°48'0 0.0
2016-Aug-17 10:31N 35°36' E 139°48'0 0.0
2016-Aug-17 09:31N 35°36' E 139°48'0 0.0
2016-Aug-17 08:31N 35°36' E 139°48'0 0.0
2016-Aug-17 07:31N 35°36' E 139°48'0 0.0
2016-Aug-17 06:31N 35°36' E 139°48'0 0.0
2016-Aug-17 05:31N 35°36' E 139°48'0 0.0
2016-Aug-17 04:28N 35°36' E 139°48'0 0.0
2016-Aug-17 03:31N 35°36' E 139°48'1 1.5
2016-Aug-17 02:33N 35°35' E 139°48'1313.3
2016-Aug-17 01:33N 35°22' E 139°45'1212.1
2016-Aug-17 00:34N 35°10' E 139°47'1919.4
2016-Aug-16 23:33N 34°56' E 139°30'5718.3
2016-Aug-16 20:27N 34°30' E 138°28'  
2016-Aug-14 09:31N 33°50' E 134°52'2222.7
2016-Aug-14 08:33N 34°12' E 134°57'2120.8
2016-Aug-14 07:33N 34°30' E 135°11'1513.2
2016-Aug-14 06:25N 34°40' E 135°24'0 0.0
2016-Aug-14 04:31N 34°40' E 135°24'0 0.0
2016-Aug-14 03:19N 34°40' E 135°24'0 0.0
2016-Aug-14 02:31N 34°40' E 135°24'0 0.0
2016-Aug-14 01:31N 34°40' E 135°24'0 0.0
2016-Aug-14 00:32N 34°40' E 135°24'6 6.4
2016-Aug-13 23:33N 34°35' E 135°19'2222.5
2016-Aug-13 22:33N 34°19' E 135°01'  
Track history (hours):
 
Tides and Currents Weather Stations Pressure Air Temp Water Temp Dewpoint Dewpoint Depression Visibility Wind Speed Wind Dir Waves Ship Positions

Himawari 2

Last reported at 2016-Aug-23 19:33 UTC. Time now 2016-Aug-23 21:04 UTC.
Position N 35°23' E 140°45'.

Length 161 m; draft 6.5 m.

Type: Cargo ship. MMSI: 431100957.

Date/timePositionNaut miles runAvg speedWind from/ knotsBaromVisibWave heightAir tempDewpointWater temp
2016-Aug-23 19:33N 35°23' E 140°45'2019.1
2016-Aug-23 18:31N 35°07' E 140°31'2020.1
2016-Aug-23 17:31N 34°56' E 140°11'1919.2
2016-Aug-23 16:32N 34°50' E 139°48'1818.8
2016-Aug-23 15:34N 35°08' E 139°45'1313.3
2016-Aug-23 14:34N 35°21' E 139°42'1514.5
2016-Aug-23 13:34N 35°35' E 139°47'1 1.1
2016-Aug-23 12:31N 35°36' E 139°48'0 0.0
2016-Aug-23 11:31N 35°36' E 139°48'0 0.0
2016-Aug-23 10:31N 35°36' E 139°48'0 0.0
2016-Aug-23 09:31N 35°36' E 139°48'0 0.0
2016-Aug-23 08:31N 35°36' E 139°48'0 0.0
2016-Aug-23 07:31N 35°36' E 139°48'0 0.0
2016-Aug-23 06:31N 35°36' E 139°48'0 0.0
2016-Aug-23 05:31N 35°36' E 139°48'0 0.0
2016-Aug-23 04:31N 35°36' E 139°48'0 0.0
2016-Aug-23 03:31N 35°36' E 139°48'0 0.0
2016-Aug-23 02:31N 35°36' E 139°48'0 0.5
2016-Aug-23 01:33N 35°36' E 139°47'1212.2
2016-Aug-23 00:33N 35°24' E 139°46'1010.4
2016-Aug-22 23:33N 35°14' E 139°47'1414.1
2016-Aug-22 22:34N 35°01' E 139°39'7919.7
2016-Aug-22 18:32N 34°18' E 138°19'16718.6
2016-Aug-22 09:32N 33°59' E 134°58'2121.4
2016-Aug-22 08:32N 34°20' E 134°59'2020.2
2016-Aug-22 07:34N 34°34' E 135°16'9 8.3
2016-Aug-22 06:31N 34°40' E 135°24'0 0.0
2016-Aug-22 05:25N 34°40' E 135°24'0 0.0
2016-Aug-22 04:31N 34°40' E 135°24'0 0.0
2016-Aug-22 03:31N 34°40' E 135°24'0 0.0
2016-Aug-22 02:31N 34°40' E 135°24'0 0.0
2016-Aug-22 00:25N 34°40' E 135°24'0 0.0
2016-Aug-21 23:31N 34°40' E 135°24'0 0.0
2016-Aug-21 22:31N 34°40' E 135°24'0 0.0
2016-Aug-21 21:31N 34°40' E 135°24'0 0.0
2016-Aug-21 20:31N 34°40' E 135°24'0 0.0
2016-Aug-21 19:25N 34°40' E 135°24'0 0.0
2016-Aug-21 18:31N 34°40' E 135°24'0 0.0
2016-Aug-21 17:31N 34°40' E 135°24'0 0.0
2016-Aug-21 16:25N 34°40' E 135°24'0 0.0
2016-Aug-21 15:31N 34°40' E 135°24'0 0.0
2016-Aug-21 14:31N 34°40' E 135°24'0 0.0
2016-Aug-21 13:31N 34°40' E 135°24'0 0.0
2016-Aug-21 12:31N 34°40' E 135°24'0 0.0
2016-Aug-21 11:31N 34°40' E 135°24'0 0.0
2016-Aug-21 10:31N 34°40' E 135°24'0 0.0
2016-Aug-21 09:31N 34°40' E 135°24'0 0.0
2016-Aug-21 08:31N 34°40' E 135°24'0 0.0
2016-Aug-21 07:31N 34°40' E 135°24'0 0.0
2016-Aug-21 06:25N 34°40' E 135°24'0 0.0
2016-Aug-21 05:33N 34°40' E 135°24'8 7.8
2016-Aug-21 04:33N 34°34' E 135°18'2222.1
2016-Aug-21 03:33N 34°18' E 134°60'16918.8
2016-Aug-20 18:33N 34°21' E 138°24'7222.8
2016-Aug-20 15:24N 35°01' E 139°37'1618.7
2016-Aug-20 14:33N 35°15' E 139°46'1413.7
2016-Aug-20 13:34N 35°28' E 139°49'8 7.7
2016-Aug-20 12:31N 35°36' E 139°48'0 0.0
2016-Aug-20 11:31N 35°36' E 139°48'0 0.0
2016-Aug-20 10:31N 35°36' E 139°48'0 0.1
2016-Aug-20 09:34N 35°36' E 139°48'9 9.5
2016-Aug-20 08:34N 35°27' E 139°49'1212.1
2016-Aug-20 07:34N 35°15' E 139°47'2020.0
2016-Aug-20 06:34N 34°55' E 139°45'2120.7
2016-Aug-20 05:33N 34°59' E 140°10'2222.2
2016-Aug-20 04:33N 35°13' E 140°31'2121.4
2016-Aug-20 03:33N 35°30' E 140°47'2121.1
2016-Aug-20 02:33N 35°49' E 140°59'  
2016-Aug-17 18:25N 35°12' E 140°37'2020.3
2016-Aug-17 17:27N 34°59' E 140°19'1920.5
2016-Aug-17 16:31N 34°51' E 139°58'1515.4
2016-Aug-17 15:33N 34°60' E 139°43'1716.6
2016-Aug-17 14:33N 35°16' E 139°45'1313.5
2016-Aug-17 13:33N 35°29' E 139°50'7 7.0
2016-Aug-17 12:31N 35°36' E 139°48'0 0.0
2016-Aug-17 11:31N 35°36' E 139°48'0 0.0
2016-Aug-17 10:31N 35°36' E 139°48'0 0.0
2016-Aug-17 09:31N 35°36' E 139°48'0 0.0
2016-Aug-17 08:31N 35°36' E 139°48'0 0.0
2016-Aug-17 07:31N 35°36' E 139°48'0 0.0
2016-Aug-17 06:31N 35°36' E 139°48'0 0.0
2016-Aug-17 05:31N 35°36' E 139°48'0 0.0
2016-Aug-17 04:28N 35°36' E 139°48'0 0.0
2016-Aug-17 03:31N 35°36' E 139°48'1 1.5
2016-Aug-17 02:33N 35°35' E 139°48'1313.3
2016-Aug-17 01:33N 35°22' E 139°45'1212.1
2016-Aug-17 00:34N 35°10' E 139°47'1919.4
2016-Aug-16 23:33N 34°56' E 139°30'5718.3
2016-Aug-16 20:27N 34°30' E 138°28'  
2016-Aug-14 09:31N 33°50' E 134°52'2222.7
2016-Aug-14 08:33N 34°12' E 134°57'2120.8
2016-Aug-14 07:33N 34°30' E 135°11'1513.2
2016-Aug-14 06:25N 34°40' E 135°24'0 0.0
2016-Aug-14 04:31N 34°40' E 135°24'0 0.0
2016-Aug-14 03:19N 34°40' E 135°24'0 0.0
2016-Aug-14 02:31N 34°40' E 135°24'0 0.0
2016-Aug-14 01:31N 34°40' E 135°24'0 0.0
2016-Aug-14 00:32N 34°40' E 135°24'6 6.4
2016-Aug-13 23:33N 34°35' E 135°19'2222.5
2016-Aug-13 22:33N 34°19' E 135°01'  

Dump ship's entire track history